createdAt,value
2017-10-28T00:00:30.695Z,0
2017-10-28T00:01:40.399Z,0
2017-10-28T00:02:49.763Z,0
2017-10-28T00:03:59.128Z,0
2017-10-28T00:05:08.158Z,0
2017-10-28T00:06:17.852Z,0
2017-10-28T00:07:27.548Z,0
2017-10-28T00:08:36.247Z,0
2017-10-28T00:09:45.607Z,0
2017-10-28T00:10:54.634Z,0
2017-10-28T00:12:03.331Z,0
2017-10-28T00:13:13.023Z,0
2017-10-28T00:14:22.054Z,0
2017-10-28T00:15:31.743Z,0
2017-10-28T00:16:40.777Z,0
2017-10-28T00:17:49.805Z,0
2017-10-28T00:18:58.838Z,0
2017-10-28T00:20:08.535Z,0
2017-10-28T00:21:17.575Z,0
2017-10-28T00:22:26.602Z,0
2017-10-28T00:23:35.304Z,0
2017-10-28T00:24:43.996Z,0
2017-10-28T00:25:53.025Z,0
2017-10-28T00:27:01.723Z,0
2017-10-28T00:28:10.752Z,0
2017-10-28T00:29:19.781Z,0
2017-10-28T00:30:28.818Z,0
2017-10-28T00:31:37.843Z,0
2017-10-28T00:32:47.206Z,0
2017-10-28T00:33:56.912Z,0
2017-10-28T00:35:06.288Z,0
2017-10-28T00:36:15.652Z,0
2017-10-28T00:37:25.022Z,0
2017-10-28T00:38:34.381Z,0
2017-10-28T00:39:43.744Z,0
2017-10-28T00:40:52.784Z,0
2017-10-28T00:42:02.154Z,0
2017-10-28T00:43:11.853Z,0
2017-10-28T00:44:21.880Z,0
2017-10-28T00:45:30.908Z,0
2017-10-28T00:46:39.944Z,0
2017-10-28T00:47:49.306Z,0
2017-10-28T00:48:58.337Z,0
2017-10-28T00:50:07.045Z,0
2017-10-28T00:51:16.068Z,0
2017-10-28T00:52:24.764Z,0
2017-10-28T00:53:33.797Z,0
2017-10-28T00:54:42.834Z,0
2017-10-28T00:55:51.866Z,0
2017-10-28T00:57:01.568Z,0
2017-10-28T00:58:10.267Z,0
2017-10-28T00:59:18.960Z,0
2017-10-28T01:00:27.991Z,0
2017-10-28T01:01:37.371Z,0
2017-10-28T01:02:46.409Z,0
2017-10-28T01:03:55.769Z,0
2017-10-28T01:05:05.133Z,0
2017-10-28T01:06:14.163Z,0
2017-10-28T01:07:23.527Z,0
2017-10-28T01:08:32.562Z,0
2017-10-28T01:09:41.263Z,0
2017-10-28T01:10:49.962Z,0
2017-10-28T01:11:59.321Z,0
2017-10-28T01:13:08.684Z,0
2017-10-28T01:14:17.379Z,0
2017-10-28T01:15:26.749Z,0
2017-10-28T01:16:35.775Z,0
2017-10-28T01:17:45.136Z,0
2017-10-28T01:18:54.164Z,0
2017-10-28T01:20:03.530Z,0
2017-10-28T01:21:12.898Z,0
2017-10-28T01:22:22.589Z,0
2017-10-28T01:23:31.617Z,0
2017-10-28T01:24:40.983Z,0
2017-10-28T01:25:49.695Z,0
2017-10-28T01:26:59.722Z,0
2017-10-28T01:28:08.757Z,0
2017-10-28T01:29:18.124Z,0
2017-10-28T01:30:26.820Z,0
2017-10-28T01:31:35.518Z,0
2017-10-28T01:32:44.880Z,0
2017-10-28T01:33:53.574Z,0
2017-10-28T01:35:02.941Z,0
2017-10-28T01:36:12.313Z,0
2017-10-28T01:37:21.344Z,0
2017-10-28T01:38:30.708Z,0
2017-10-28T01:39:39.417Z,0
2017-10-28T01:40:48.112Z,0
2017-10-28T01:41:57.143Z,0
2017-10-28T01:43:06.173Z,0
2017-10-28T01:44:15.206Z,0
2017-10-28T01:45:23.905Z,0
2017-10-28T01:46:33.286Z,0
2017-10-28T01:47:42.318Z,0
2017-10-28T01:48:51.684Z,0
2017-10-28T01:50:00.725Z,0
2017-10-28T01:51:09.418Z,0
2017-10-28T01:52:18.450Z,0
2017-10-28T01:53:27.151Z,0
2017-10-28T01:54:35.850Z,0
2017-10-28T01:55:44.548Z,0
2017-10-28T01:56:53.924Z,0
2017-10-28T01:58:03.279Z,0
2017-10-28T01:59:11.980Z,0
2017-10-28T02:00:20.676Z,0
2017-10-28T02:01:30.037Z,0
2017-10-28T02:02:39.404Z,0
2017-10-28T02:03:48.099Z,0
2017-10-28T02:04:58.136Z,0
2017-10-28T02:06:07.506Z,0
2017-10-28T02:07:16.871Z,0
2017-10-28T02:08:25.572Z,0
2017-10-28T02:09:34.606Z,0
2017-10-28T02:10:43.640Z,0
2017-10-28T02:11:52.677Z,0
2017-10-28T02:13:02.036Z,0
2017-10-28T02:14:11.066Z,0
2017-10-28T02:15:20.772Z,0
2017-10-28T02:16:29.470Z,0
2017-10-28T02:17:38.837Z,0
2017-10-28T02:18:48.222Z,0
2017-10-28T02:19:57.590Z,0
2017-10-28T02:21:06.622Z,0
2017-10-28T02:22:15.986Z,0
2017-10-28T02:23:24.684Z,0
2017-10-28T02:24:34.713Z,0
2017-10-28T02:25:43.408Z,0
2017-10-28T02:26:52.773Z,0
2017-10-28T02:28:01.811Z,0
2017-10-28T02:29:10.844Z,0
2017-10-28T02:30:20.205Z,0
2017-10-28T02:31:29.248Z,0
2017-10-28T02:32:38.286Z,0
2017-10-28T02:33:47.322Z,0
2017-10-28T02:34:56.687Z,0
2017-10-28T02:36:05.726Z,0
2017-10-28T02:37:14.759Z,0
2017-10-28T02:38:23.465Z,0
2017-10-28T02:39:32.506Z,0
2017-10-28T02:40:41.531Z,0
2017-10-28T02:41:50.569Z,0
2017-10-28T02:42:59.934Z,0
2017-10-28T02:44:09.304Z,0
2017-10-28T02:45:18.001Z,0
2017-10-28T02:46:27.369Z,0
2017-10-28T02:47:36.069Z,0
2017-10-28T02:48:45.098Z,0
2017-10-28T02:49:54.463Z,0
2017-10-28T02:51:03.833Z,0
2017-10-28T02:52:13.214Z,0
2017-10-28T02:53:22.243Z,0
2017-10-28T02:54:31.269Z,0
2017-10-28T02:55:39.981Z,0
2017-10-28T02:56:49.016Z,0
2017-10-28T02:57:58.381Z,0
2017-10-28T02:59:07.413Z,0
2017-10-28T03:00:16.796Z,0
2017-10-28T03:01:26.490Z,0
2017-10-28T03:02:35.187Z,0
2017-10-28T03:03:43.888Z,0
2017-10-28T03:04:52.919Z,0
2017-10-28T03:06:01.957Z,0
2017-10-28T03:07:10.989Z,0
2017-10-28T03:08:20.020Z,0
2017-10-28T03:09:29.047Z,0
2017-10-28T03:10:37.745Z,0
2017-10-28T03:11:47.118Z,0
2017-10-28T03:12:56.158Z,0
2017-10-28T03:14:05.185Z,0
2017-10-28T03:15:14.217Z,0
2017-10-28T03:16:22.922Z,0
2017-10-28T03:17:32.621Z,0
2017-10-28T03:18:41.653Z,0
2017-10-28T03:19:50.682Z,0
2017-10-28T03:20:59.716Z,0
2017-10-28T03:22:08.745Z,0
2017-10-28T03:23:18.107Z,0
2017-10-28T03:24:27.133Z,0
2017-10-28T03:25:36.494Z,0
2017-10-28T03:26:45.192Z,0
2017-10-28T03:27:54.549Z,0
2017-10-28T03:29:03.916Z,0
2017-10-28T03:30:13.284Z,0
2017-10-28T03:31:22.320Z,0
2017-10-28T03:32:31.348Z,0
2017-10-28T03:33:40.392Z,0
2017-10-28T03:34:49.425Z,0
2017-10-28T03:35:58.451Z,0
2017-10-28T03:37:07.147Z,0
2017-10-28T03:38:15.847Z,0
2017-10-28T03:39:24.878Z,0
2017-10-28T03:40:33.572Z,0
2017-10-28T03:41:42.603Z,0
2017-10-28T03:42:51.969Z,0
2017-10-28T03:44:01.340Z,0
2017-10-28T03:45:10.711Z,0
2017-10-28T03:46:19.742Z,0
2017-10-28T03:47:29.101Z,0
2017-10-28T03:48:38.130Z,0
2017-10-28T03:49:47.159Z,0
2017-10-28T03:50:56.516Z,0
2017-10-28T03:52:05.877Z,0
2017-10-28T03:53:15.242Z,0
2017-10-28T03:54:23.940Z,0
2017-10-28T03:55:32.987Z,0
2017-10-28T03:56:42.022Z,0
2017-10-28T03:57:51.715Z,0
2017-10-28T03:59:00.410Z,0
2017-10-28T04:00:09.773Z,0
2017-10-28T04:01:18.809Z,0
2017-10-28T04:02:27.502Z,0
2017-10-28T04:03:36.534Z,0
2017-10-28T04:04:45.896Z,0
2017-10-28T04:05:55.588Z,0
2017-10-28T04:07:04.284Z,0
2017-10-28T04:08:13.652Z,0
2017-10-28T04:09:22.352Z,0
2017-10-28T04:10:31.384Z,0
2017-10-28T04:11:40.415Z,0
2017-10-28T04:12:49.447Z,0
2017-10-28T04:13:58.144Z,0
2017-10-28T04:15:07.172Z,0
2017-10-28T04:16:16.202Z,0
2017-10-28T04:17:25.230Z,0
2017-10-28T04:18:34.264Z,0
2017-10-28T04:19:43.295Z,0
2017-10-28T04:20:52.985Z,0
2017-10-28T04:22:02.016Z,0
2017-10-28T04:23:11.704Z,0
2017-10-28T04:24:21.064Z,0
2017-10-28T04:25:30.431Z,0
2017-10-28T04:26:39.460Z,0
2017-10-28T04:27:48.820Z,0
2017-10-28T04:28:57.850Z,0
2017-10-28T04:30:06.879Z,0
2017-10-28T04:31:15.912Z,0
2017-10-28T04:32:25.272Z,0
2017-10-28T04:33:34.305Z,0
2017-10-28T04:34:43.673Z,0
2017-10-28T04:35:52.705Z,0
2017-10-28T04:37:02.099Z,0
2017-10-28T04:38:11.817Z,0
2017-10-28T04:39:20.848Z,0
2017-10-28T04:40:29.878Z,0
2017-10-28T04:41:38.906Z,0
2017-10-28T04:42:47.936Z,0
2017-10-28T04:43:56.630Z,0
2017-10-28T04:45:05.330Z,0
2017-10-28T04:46:15.026Z,0
2017-10-28T04:47:24.718Z,0
2017-10-28T04:48:34.082Z,0
2017-10-28T04:49:42.777Z,0
2017-10-28T04:50:52.472Z,0
2017-10-28T04:52:01.503Z,0
2017-10-28T04:53:10.202Z,0
2017-10-28T04:54:18.905Z,0
2017-10-28T04:55:27.944Z,0
2017-10-28T04:56:36.973Z,0
2017-10-28T04:57:46.333Z,0
2017-10-28T04:58:55.727Z,0
2017-10-28T05:00:05.094Z,0
2017-10-28T05:01:14.122Z,0
2017-10-28T05:02:23.493Z,0
2017-10-28T05:03:32.857Z,0
2017-10-28T05:04:41.552Z,0
2017-10-28T05:05:50.590Z,0
2017-10-28T05:06:59.945Z,0
2017-10-28T05:08:09.648Z,0
2017-10-28T05:09:18.343Z,0
2017-10-28T05:10:27.712Z,0
2017-10-28T05:11:36.745Z,0
2017-10-28T05:12:46.118Z,0
2017-10-28T05:13:55.144Z,0
2017-10-28T05:15:04.176Z,0
2017-10-28T05:16:13.210Z,0
2017-10-28T05:17:22.578Z,0
2017-10-28T05:18:31.942Z,0
2017-10-28T05:19:40.973Z,0
2017-10-28T05:20:50.012Z,0
2017-10-28T05:21:58.713Z,0
2017-10-28T05:23:07.741Z,0
2017-10-28T05:24:17.466Z,0
2017-10-28T05:25:27.168Z,0
2017-10-28T05:26:36.197Z,0
2017-10-28T05:27:45.557Z,0
2017-10-28T05:28:54.592Z,0
2017-10-28T05:30:03.963Z,0
2017-10-28T05:31:12.663Z,0
2017-10-28T05:32:21.696Z,0
2017-10-28T05:33:30.763Z,0
2017-10-28T05:34:40.790Z,0
2017-10-28T05:35:49.826Z,0
2017-10-28T05:36:58.859Z,0
2017-10-28T05:38:07.887Z,0
2017-10-28T05:39:16.918Z,0
2017-10-28T05:40:25.614Z,0
2017-10-28T05:41:34.309Z,0
2017-10-28T05:42:43.340Z,0
2017-10-28T05:43:52.370Z,0
2017-10-28T05:45:01.404Z,0
2017-10-28T05:46:10.433Z,0
2017-10-28T05:47:19.128Z,0
2017-10-28T05:48:27.834Z,0
2017-10-28T05:49:37.199Z,0
2017-10-28T05:50:46.570Z,0
2017-10-28T05:51:55.262Z,0
2017-10-28T05:53:03.960Z,0
2017-10-28T05:54:12.987Z,0
2017-10-28T05:55:22.360Z,0
2017-10-28T05:56:31.391Z,0
2017-10-28T05:57:40.421Z,0
2017-10-28T05:58:49.817Z,0
2017-10-28T05:59:58.839Z,0
2017-10-28T06:01:08.867Z,0
2017-10-28T06:02:18.257Z,0
2017-10-28T06:03:27.280Z,0
2017-10-28T06:04:36.642Z,0
2017-10-28T06:05:46.008Z,0
2017-10-28T06:06:55.031Z,0
2017-10-28T06:08:04.061Z,0
2017-10-28T06:09:13.094Z,0
2017-10-28T06:10:22.464Z,0
2017-10-28T06:11:31.163Z,0
2017-10-28T06:12:40.190Z,0
2017-10-28T06:13:49.919Z,0
2017-10-28T06:14:58.956Z,0
2017-10-28T06:16:07.651Z,0
2017-10-28T06:17:16.681Z,0
2017-10-28T06:18:25.710Z,0
2017-10-28T06:19:34.740Z,0
2017-10-28T06:20:44.108Z,0
2017-10-28T06:21:53.471Z,0
2017-10-28T06:23:02.835Z,0
2017-10-28T06:24:12.205Z,4
2017-10-28T06:25:21.575Z,0
2017-10-28T06:26:31.273Z,0
2017-10-28T06:27:39.967Z,0
2017-10-28T06:28:48.996Z,4
2017-10-28T06:29:58.025Z,0
2017-10-28T06:31:07.393Z,4
2017-10-28T06:32:17.098Z,4
2017-10-28T06:33:26.456Z,0
2017-10-28T06:34:35.820Z,0
2017-10-28T06:35:45.518Z,4
2017-10-28T06:36:54.217Z,4
2017-10-28T06:38:02.925Z,4
2017-10-28T06:39:11.613Z,0
2017-10-28T06:40:20.644Z,4
2017-10-28T06:41:29.672Z,4
2017-10-28T06:42:38.370Z,4
2017-10-28T06:43:47.402Z,4
2017-10-28T06:44:56.431Z,4
2017-10-28T06:46:05.795Z,4
2017-10-28T06:47:14.828Z,8
2017-10-28T06:48:24.189Z,8
2017-10-28T06:49:33.227Z,8
2017-10-28T06:50:41.926Z,12
2017-10-28T06:51:50.952Z,8
2017-10-28T06:52:59.983Z,8
2017-10-28T06:54:09.016Z,4
2017-10-28T06:55:18.377Z,8
2017-10-28T06:56:28.075Z,12
2017-10-28T06:57:37.105Z,12
2017-10-28T06:58:46.131Z,8
2017-10-28T06:59:55.159Z,8
2017-10-28T07:01:04.521Z,12
2017-10-28T07:02:13.220Z,8
2017-10-28T07:03:22.588Z,8
2017-10-28T07:04:31.613Z,8
2017-10-28T07:05:40.979Z,12
2017-10-28T07:06:50.009Z,12
2017-10-28T07:07:59.040Z,8
2017-10-28T07:09:08.075Z,8
2017-10-28T07:10:17.109Z,8
2017-10-28T07:11:25.809Z,4
2017-10-28T07:12:35.180Z,12
2017-10-28T07:13:43.892Z,12
2017-10-28T07:14:52.591Z,4
2017-10-28T07:16:02.620Z,4
2017-10-28T07:17:11.655Z,8
2017-10-28T07:18:20.691Z,12
2017-10-28T07:19:30.378Z,12
2017-10-28T07:20:39.081Z,4
2017-10-28T07:21:47.782Z,12
2017-10-28T07:22:56.806Z,12
2017-10-28T07:24:05.505Z,12
2017-10-28T07:25:15.210Z,16
2017-10-28T07:26:24.240Z,12
2017-10-28T07:27:33.274Z,8
2017-10-28T07:28:42.306Z,4
2017-10-28T07:29:51.680Z,8
2017-10-28T07:31:01.407Z,12
2017-10-28T07:32:10.111Z,16
2017-10-28T07:33:19.138Z,8
2017-10-28T07:34:27.839Z,12
2017-10-28T07:35:36.877Z,12
2017-10-28T07:36:46.237Z,8
2017-10-28T07:37:55.599Z,4
2017-10-28T07:39:04.988Z,12
2017-10-28T07:40:15.060Z,8
2017-10-28T07:41:24.091Z,8
2017-10-28T07:42:33.117Z,16
2017-10-28T07:43:42.148Z,16
2017-10-28T07:44:51.508Z,24
2017-10-28T07:46:00.538Z,24
2017-10-28T07:47:10.240Z,20
2017-10-28T07:48:19.602Z,16
2017-10-28T07:49:28.297Z,20
2017-10-28T07:50:36.994Z,24
2017-10-28T07:51:46.365Z,24
2017-10-28T07:52:55.394Z,32
2017-10-28T07:54:05.095Z,24
2017-10-28T07:55:13.795Z,24
2017-10-28T07:56:22.836Z,28
2017-10-28T07:57:31.538Z,28
2017-10-28T07:58:40.898Z,28
2017-10-28T07:59:50.257Z,28
2017-10-28T08:00:59.626Z,28
2017-10-28T08:02:08.987Z,28
2017-10-28T08:03:17.684Z,28
2017-10-28T08:04:27.043Z,32
2017-10-28T08:05:36.069Z,24
2017-10-28T08:06:44.774Z,24
2017-10-28T08:07:54.469Z,36
2017-10-28T08:09:03.172Z,36
2017-10-28T08:10:12.192Z,36
2017-10-28T08:11:20.891Z,36
2017-10-28T08:12:29.923Z,40
2017-10-28T08:13:39.313Z,52
2017-10-28T08:14:48.317Z,52
2017-10-28T08:15:57.351Z,44
2017-10-28T08:17:06.045Z,64
2017-10-28T08:18:15.083Z,44
2017-10-28T08:19:24.116Z,48
2017-10-28T08:20:32.812Z,28
2017-10-28T08:21:42.199Z,32
2017-10-28T08:22:51.561Z,48
2017-10-28T08:24:00.260Z,48
2017-10-28T08:25:09.292Z,48
2017-10-28T08:26:18.321Z,28
2017-10-28T08:27:27.067Z,36
2017-10-28T08:28:35.763Z,44
2017-10-28T08:29:44.791Z,28
2017-10-28T08:30:53.826Z,24
2017-10-28T08:32:02.527Z,24
2017-10-28T08:33:11.888Z,28
2017-10-28T08:34:20.916Z,36
2017-10-28T08:35:30.274Z,24
2017-10-28T08:36:39.968Z,20
2017-10-28T08:37:48.998Z,12
2017-10-28T08:38:58.356Z,16
2017-10-28T08:40:07.052Z,16
2017-10-28T08:41:16.083Z,24
2017-10-28T08:42:25.114Z,40
2017-10-28T08:43:33.809Z,36
2017-10-28T08:44:42.837Z,20
2017-10-28T08:45:52.201Z,16
2017-10-28T08:47:01.250Z,20
2017-10-28T08:48:10.269Z,20
2017-10-28T08:49:19.971Z,20
2017-10-28T08:50:29.001Z,24
2017-10-28T08:51:38.376Z,36
2017-10-28T08:52:47.409Z,52
2017-10-28T08:53:57.130Z,52
2017-10-28T08:55:06.495Z,24
2017-10-28T08:56:15.853Z,24
2017-10-28T08:57:24.551Z,36
2017-10-28T08:58:33.918Z,24
2017-10-28T08:59:42.614Z,40
2017-10-28T09:00:51.990Z,24
2017-10-28T09:02:01.356Z,20
2017-10-28T09:03:10.721Z,20
2017-10-28T09:04:19.420Z,36
2017-10-28T09:05:28.113Z,36
2017-10-28T09:06:37.143Z,52
2017-10-28T09:07:46.174Z,48
2017-10-28T09:08:55.206Z,72
2017-10-28T09:10:03.909Z,64
2017-10-28T09:11:13.602Z,88
2017-10-28T09:12:22.975Z,104
2017-10-28T09:13:32.007Z,96
2017-10-28T09:14:41.372Z,64
2017-10-28T09:15:50.404Z,72
2017-10-28T09:17:00.435Z,116
2017-10-28T09:18:09.136Z,48
2017-10-28T09:19:18.499Z,36
2017-10-28T09:20:27.195Z,52
2017-10-28T09:21:37.229Z,80
2017-10-28T09:22:46.584Z,80
2017-10-28T09:23:55.949Z,80
2017-10-28T09:25:04.648Z,80
2017-10-28T09:26:13.349Z,76
2017-10-28T09:27:22.380Z,60
2017-10-28T09:28:31.410Z,76
2017-10-28T09:29:40.107Z,52
2017-10-28T09:30:49.140Z,92
2017-10-28T09:31:58.188Z,100
2017-10-28T09:33:07.221Z,92
2017-10-28T09:34:16.247Z,108
2017-10-28T09:35:25.271Z,108
2017-10-28T09:36:34.638Z,84
2017-10-28T09:37:43.670Z,88
2017-10-28T09:38:52.367Z,108
2017-10-28T09:40:01.779Z,76
2017-10-28T09:41:11.476Z,84
2017-10-28T09:42:20.172Z,68
2017-10-28T09:43:29.203Z,72
2017-10-28T09:44:38.245Z,76
2017-10-28T09:45:47.282Z,68
2017-10-28T09:46:55.983Z,80
2017-10-28T09:48:05.343Z,96
2017-10-28T09:49:14.373Z,100
2017-10-28T09:50:23.738Z,84
2017-10-28T09:51:32.771Z,100
2017-10-28T09:52:41.799Z,68
2017-10-28T09:53:50.826Z,68
2017-10-28T09:55:00.189Z,68
2017-10-28T09:56:08.887Z,64
2017-10-28T09:57:17.926Z,80
2017-10-28T09:58:26.625Z,96
2017-10-28T09:59:36.328Z,52
2017-10-28T10:00:45.040Z,56
2017-10-28T10:01:54.409Z,36
2017-10-28T10:03:03.449Z,28
2017-10-28T10:04:12.476Z,28
2017-10-28T10:05:21.836Z,32
2017-10-28T10:06:31.875Z,36
2017-10-28T10:07:41.244Z,44
2017-10-28T10:08:50.277Z,52
2017-10-28T10:09:59.306Z,40
2017-10-28T10:11:09.002Z,52
2017-10-28T10:12:18.365Z,68
2017-10-28T10:13:27.726Z,68
2017-10-28T10:14:36.757Z,48
2017-10-28T10:15:45.786Z,40
2017-10-28T10:16:55.161Z,24
2017-10-28T10:18:03.866Z,28
2017-10-28T10:19:12.900Z,40
2017-10-28T10:20:21.937Z,28
2017-10-28T10:21:30.963Z,44
2017-10-28T10:22:39.984Z,64
2017-10-28T10:23:49.013Z,36
2017-10-28T10:24:57.710Z,32
2017-10-28T10:26:06.408Z,28
2017-10-28T10:27:15.448Z,32
2017-10-28T10:28:24.135Z,40
2017-10-28T10:29:33.167Z,48
2017-10-28T10:30:42.197Z,36
2017-10-28T10:31:51.900Z,32
2017-10-28T10:33:01.607Z,32
2017-10-28T10:34:10.970Z,28
2017-10-28T10:35:19.675Z,28
2017-10-28T10:36:29.373Z,44
2017-10-28T10:37:38.396Z,28
2017-10-28T10:38:47.424Z,36
2017-10-28T10:39:56.124Z,32
2017-10-28T10:41:05.485Z,44
2017-10-28T10:42:15.195Z,32
2017-10-28T10:43:23.892Z,56
2017-10-28T10:44:32.594Z,52
2017-10-28T10:45:41.633Z,40
2017-10-28T10:46:51.655Z,44
2017-10-28T10:48:00.682Z,40
2017-10-28T10:49:10.061Z,40
2017-10-28T10:50:19.087Z,44
2017-10-28T10:51:27.787Z,32
2017-10-28T10:52:36.819Z,44
2017-10-28T10:53:45.850Z,32
2017-10-28T10:54:54.886Z,20
2017-10-28T10:56:03.914Z,40
2017-10-28T10:57:12.942Z,32
2017-10-28T10:58:22.309Z,40
2017-10-28T10:59:31.687Z,68
2017-10-28T11:00:41.395Z,56
2017-10-28T11:01:50.757Z,36
2017-10-28T11:02:59.454Z,32
2017-10-28T11:04:08.486Z,28
2017-10-28T11:05:18.180Z,48
2017-10-28T11:06:27.545Z,60
2017-10-28T11:07:36.928Z,24
2017-10-28T11:08:46.291Z,32
2017-10-28T11:09:55.324Z,32
2017-10-28T11:11:05.018Z,44
2017-10-28T11:12:14.046Z,68
2017-10-28T11:13:23.075Z,60
2017-10-28T11:14:32.107Z,40
2017-10-28T11:15:41.491Z,64
2017-10-28T11:16:50.852Z,64
2017-10-28T11:18:00.243Z,56
2017-10-28T11:19:08.942Z,44
2017-10-28T11:20:17.642Z,48
2017-10-28T11:21:27.009Z,36
2017-10-28T11:22:36.370Z,40
2017-10-28T11:23:45.774Z,32
2017-10-28T11:24:54.451Z,36
2017-10-28T11:26:03.479Z,40
2017-10-28T11:27:12.847Z,40
2017-10-28T11:28:22.203Z,40
2017-10-28T11:29:31.235Z,32
2017-10-28T11:30:40.941Z,48
2017-10-28T11:31:50.985Z,60
2017-10-28T11:33:00.021Z,64
2017-10-28T11:34:09.721Z,48
2017-10-28T11:35:19.087Z,40
2017-10-28T11:36:28.123Z,60
2017-10-28T11:37:36.826Z,68
2017-10-28T11:38:45.893Z,68
2017-10-28T11:39:54.914Z,52
2017-10-28T11:41:03.945Z,64
2017-10-28T11:42:12.645Z,52
2017-10-28T11:43:21.682Z,76
2017-10-28T11:44:31.043Z,48
2017-10-28T11:45:40.082Z,64
2017-10-28T11:46:49.113Z,60
2017-10-28T11:47:59.142Z,64
2017-10-28T11:49:08.176Z,52
2017-10-28T11:50:17.211Z,80
2017-10-28T11:51:26.901Z,48
2017-10-28T11:52:35.601Z,68
2017-10-28T11:53:44.957Z,52
2017-10-28T11:54:53.655Z,60
2017-10-28T11:56:02.353Z,52
2017-10-28T11:57:12.390Z,52
2017-10-28T11:58:21.410Z,40
2017-10-28T11:59:30.108Z,68
2017-10-28T12:00:39.144Z,76
2017-10-28T12:01:48.174Z,52
2017-10-28T12:02:57.535Z,76
2017-10-28T12:04:06.560Z,88
2017-10-28T12:05:15.932Z,64
2017-10-28T12:06:24.632Z,76
2017-10-28T12:07:33.996Z,92
2017-10-28T12:08:43.361Z,48
2017-10-28T12:09:52.397Z,44
2017-10-28T12:11:01.435Z,48
2017-10-28T12:12:10.478Z,36
2017-10-28T12:13:19.495Z,44
2017-10-28T12:14:28.194Z,52
2017-10-28T12:15:37.229Z,44
2017-10-28T12:16:45.921Z,40
2017-10-28T12:17:54.618Z,60
2017-10-28T12:19:03.314Z,44
2017-10-28T12:20:12.022Z,60
2017-10-28T12:21:21.053Z,60
2017-10-28T12:22:31.086Z,48
2017-10-28T12:23:40.123Z,72
2017-10-28T12:24:49.480Z,60
2017-10-28T12:25:58.849Z,48
2017-10-28T12:27:07.879Z,44
2017-10-28T12:28:17.579Z,56
2017-10-28T12:29:26.276Z,56
2017-10-28T12:30:35.651Z,44
2017-10-28T12:31:44.683Z,40
2017-10-28T12:32:54.047Z,64
2017-10-28T12:34:02.754Z,56
2017-10-28T12:35:11.784Z,48
2017-10-28T12:36:21.493Z,64
2017-10-28T12:37:31.186Z,88
2017-10-28T12:38:39.882Z,44
2017-10-28T12:39:48.926Z,84
2017-10-28T12:40:58.284Z,56
2017-10-28T12:42:07.655Z,48
2017-10-28T12:43:16.358Z,60
2017-10-28T12:44:25.382Z,56
2017-10-28T12:45:34.080Z,56
2017-10-28T12:46:43.449Z,48
2017-10-28T12:47:52.482Z,52
2017-10-28T12:49:01.517Z,68
2017-10-28T12:50:10.551Z,56
2017-10-28T12:51:19.579Z,84
2017-10-28T12:52:28.942Z,52
2017-10-28T12:53:37.642Z,48
2017-10-28T12:54:47.016Z,60
2017-10-28T12:55:56.087Z,56
2017-10-28T12:57:04.771Z,52
2017-10-28T12:58:14.143Z,88
2017-10-28T12:59:23.171Z,72
2017-10-28T13:00:31.871Z,84
2017-10-28T13:01:40.908Z,72
2017-10-28T13:02:49.602Z,96
2017-10-28T13:03:58.306Z,84
2017-10-28T13:05:07.348Z,156
2017-10-28T13:06:16.378Z,116
2017-10-28T13:07:25.406Z,84
2017-10-28T13:08:34.767Z,88
2017-10-28T13:09:43.800Z,120
2017-10-28T13:10:52.832Z,84
2017-10-28T13:12:01.860Z,68
2017-10-28T13:13:10.891Z,64
2017-10-28T13:14:20.253Z,44
2017-10-28T13:15:28.953Z,48
2017-10-28T13:16:38.656Z,52
2017-10-28T13:17:47.691Z,64
2017-10-28T13:18:57.050Z,60
2017-10-28T13:20:06.088Z,44
2017-10-28T13:21:15.118Z,40
2017-10-28T13:22:24.482Z,36
2017-10-28T13:23:33.506Z,36
2017-10-28T13:24:42.203Z,32
2017-10-28T13:25:51.241Z,32
2017-10-28T13:26:59.935Z,32
2017-10-28T13:28:09.301Z,48
2017-10-28T13:29:18.338Z,24
2017-10-28T13:30:27.039Z,48
2017-10-28T13:31:36.408Z,24
2017-10-28T13:32:45.109Z,28
2017-10-28T13:33:55.137Z,36
2017-10-28T13:35:04.501Z,28
2017-10-28T13:36:13.866Z,36
2017-10-28T13:37:23.238Z,48
2017-10-28T13:38:32.938Z,36
2017-10-28T13:39:41.636Z,28
2017-10-28T13:40:50.336Z,36
2017-10-28T13:41:59.039Z,44
2017-10-28T13:43:08.402Z,36
2017-10-28T13:44:17.102Z,32
2017-10-28T13:45:26.162Z,52
2017-10-28T13:46:34.863Z,48
2017-10-28T13:47:44.561Z,52
2017-10-28T13:48:53.928Z,64
2017-10-28T13:50:02.956Z,60
2017-10-28T13:51:11.987Z,60
2017-10-28T13:52:21.014Z,64
2017-10-28T13:53:30.377Z,48
2017-10-28T13:54:39.075Z,48
2017-10-28T13:55:48.106Z,48
2017-10-28T13:56:57.129Z,68
2017-10-28T13:58:05.828Z,40
2017-10-28T13:59:14.863Z,52
2017-10-28T14:00:23.891Z,60
2017-10-28T14:01:32.588Z,40
2017-10-28T14:02:42.440Z,36
2017-10-28T14:03:51.468Z,28
2017-10-28T14:05:00.165Z,32
2017-10-28T14:06:09.202Z,28
2017-10-28T14:07:18.239Z,36
2017-10-28T14:08:27.417Z,36
2017-10-28T14:09:36.114Z,32
2017-10-28T14:10:44.811Z,32
2017-10-28T14:11:53.840Z,32
2017-10-28T14:13:03.537Z,32
2017-10-28T14:14:12.568Z,32
2017-10-28T14:15:22.264Z,32
2017-10-28T14:16:31.628Z,24
2017-10-28T14:17:41.002Z,32
2017-10-28T14:18:50.035Z,24
2017-10-28T14:19:59.056Z,20
2017-10-28T14:21:07.756Z,24
2017-10-28T14:22:16.451Z,20
2017-10-28T14:23:25.484Z,20
2017-10-28T14:24:34.866Z,20
2017-10-28T14:25:43.898Z,20
2017-10-28T14:26:53.264Z,20
2017-10-28T14:28:02.623Z,20
2017-10-28T14:29:11.321Z,20
2017-10-28T14:30:20.354Z,28
2017-10-28T14:31:29.730Z,24
2017-10-28T14:32:39.098Z,24
2017-10-28T14:33:47.798Z,24
2017-10-28T14:34:56.828Z,32
2017-10-28T14:36:05.855Z,28
2017-10-28T14:37:15.230Z,20
2017-10-28T14:38:24.929Z,28
2017-10-28T14:39:33.626Z,20
2017-10-28T14:40:42.330Z,24
2017-10-28T14:41:51.363Z,24
2017-10-28T14:43:00.059Z,20
2017-10-28T14:44:09.427Z,24
2017-10-28T14:45:18.809Z,20
2017-10-28T14:46:28.174Z,28
2017-10-28T14:47:37.207Z,20
2017-10-28T14:48:46.241Z,16
2017-10-28T14:49:55.603Z,12
2017-10-28T14:51:04.304Z,16
2017-10-28T14:52:13.340Z,12
2017-10-28T14:53:22.041Z,12
2017-10-28T14:54:31.078Z,8
2017-10-28T14:55:40.442Z,4
2017-10-28T14:56:49.802Z,8
2017-10-28T14:57:58.827Z,8
2017-10-28T14:59:07.859Z,4
2017-10-28T15:00:17.042Z,8
2017-10-28T15:01:26.090Z,8
2017-10-28T15:02:34.800Z,4
2017-10-28T15:03:44.172Z,4
2017-10-28T15:04:52.875Z,4
2017-10-28T15:06:01.576Z,4
2017-10-28T15:07:10.273Z,4
2017-10-28T15:08:19.637Z,4
2017-10-28T15:09:28.670Z,4
2017-10-28T15:10:38.032Z,4
2017-10-28T15:11:47.073Z,4
2017-10-28T15:12:55.765Z,4
2017-10-28T15:14:04.465Z,4
2017-10-28T15:15:13.162Z,4
2017-10-28T15:16:22.861Z,8
2017-10-28T15:17:32.225Z,4
2017-10-28T15:18:41.588Z,4
2017-10-28T15:19:50.290Z,4
2017-10-28T15:20:59.321Z,4
2017-10-28T15:22:08.710Z,4
2017-10-28T15:23:17.741Z,4
2017-10-28T15:24:26.770Z,4
2017-10-28T15:25:36.461Z,4
2017-10-28T15:26:45.493Z,4
2017-10-28T15:27:54.524Z,4
2017-10-28T15:29:03.893Z,4
2017-10-28T15:30:13.591Z,4
2017-10-28T15:31:22.292Z,4
2017-10-28T15:32:31.658Z,0
2017-10-28T15:33:40.686Z,0
2017-10-28T15:34:49.719Z,0
2017-10-28T15:35:58.421Z,0
2017-10-28T15:37:08.116Z,4
2017-10-28T15:38:17.479Z,4
2017-10-28T15:39:26.842Z,4
2017-10-28T15:40:36.206Z,4
2017-10-28T15:41:45.236Z,4
2017-10-28T15:42:54.266Z,4
2017-10-28T15:44:03.291Z,4
2017-10-28T15:45:11.984Z,0
2017-10-28T15:46:21.347Z,4
2017-10-28T15:47:30.044Z,0
2017-10-28T15:48:38.741Z,0
2017-10-28T15:49:47.770Z,0
2017-10-28T15:50:57.463Z,0
2017-10-28T15:52:06.489Z,0
2017-10-28T15:53:15.855Z,0
2017-10-28T15:54:24.890Z,0
2017-10-28T15:55:33.591Z,0
2017-10-28T15:56:42.953Z,0
2017-10-28T15:57:52.355Z,0
2017-10-28T15:59:01.724Z,0
2017-10-28T16:00:11.768Z,0
2017-10-28T16:01:20.793Z,0
2017-10-28T16:02:29.819Z,0
2017-10-28T16:03:38.520Z,0
2017-10-28T16:04:47.894Z,0
2017-10-28T16:05:57.250Z,0
2017-10-28T16:07:06.616Z,0
2017-10-28T16:08:16.303Z,0
2017-10-28T16:09:25.665Z,0
2017-10-28T16:10:34.700Z,0
2017-10-28T16:11:44.073Z,0
2017-10-28T16:12:53.770Z,0
2017-10-28T16:14:03.139Z,0
2017-10-28T16:15:12.836Z,0
2017-10-28T16:16:22.645Z,0
2017-10-28T16:17:32.342Z,0
2017-10-28T16:18:41.045Z,0
2017-10-28T16:19:50.070Z,0
2017-10-28T16:20:59.433Z,0
2017-10-28T16:22:08.131Z,0
2017-10-28T16:23:17.500Z,0
2017-10-28T16:24:26.207Z,0
2017-10-28T16:25:35.570Z,0
2017-10-28T16:26:44.600Z,0
2017-10-28T16:27:53.997Z,0
2017-10-28T16:29:03.331Z,0
2017-10-28T16:30:12.696Z,0
2017-10-28T16:31:22.391Z,0
2017-10-28T16:32:31.779Z,0
2017-10-28T16:33:41.154Z,0
2017-10-28T16:34:49.852Z,0
2017-10-28T16:35:58.889Z,0
2017-10-28T16:37:07.922Z,0
2017-10-28T16:38:16.955Z,0
2017-10-28T16:39:26.319Z,0
2017-10-28T16:40:35.346Z,0
2017-10-28T16:41:44.714Z,0
2017-10-28T16:42:53.745Z,0
2017-10-28T16:44:02.784Z,0
2017-10-28T16:45:11.817Z,0